sensor_id;sensor_type;location;lat;lon;timestamp;temperature;humidity
3310;DHT22;1667;53.238;10.394;2022-08-04T00:04:00;27.30;72.20
3310;DHT22;1667;53.238;10.394;2022-08-04T00:09:05;27.20;72.80
3310;DHT22;1667;53.238;10.394;2022-08-04T00:14:13;27.10;73.40
3310;DHT22;1667;53.238;10.394;2022-08-04T00:19:16;27.10;73.50
3310;DHT22;1667;53.238;10.394;2022-08-04T00:24:15;27.00;72.90
3310;DHT22;1667;53.238;10.394;2022-08-04T00:29:16;26.90;73.90
3310;DHT22;1667;53.238;10.394;2022-08-04T00:34:14;26.90;75.20
3310;DHT22;1667;53.238;10.394;2022-08-04T00:39:13;26.80;75.50
3310;DHT22;1667;53.238;10.394;2022-08-04T00:44:25;26.80;75.80
3310;DHT22;1667;53.238;10.394;2022-08-04T00:49:51;26.70;76.10
3310;DHT22;1667;53.238;10.394;2022-08-04T00:55:03;26.70;75.80
3310;DHT22;1667;53.238;10.394;2022-08-04T01:00:09;26.60;76.70
3310;DHT22;1667;53.238;10.394;2022-08-04T01:05:14;26.60;78.60
3310;DHT22;1667;53.238;10.394;2022-08-04T01:10:22;26.50;77.20
3310;DHT22;1667;53.238;10.394;2022-08-04T01:15:31;26.40;77.70
3310;DHT22;1667;53.238;10.394;2022-08-04T01:26:42;26.40;78.10
3310;DHT22;1667;53.238;10.394;2022-08-04T01:32:00;26.30;77.50
3310;DHT22;1667;53.238;10.394;2022-08-04T01:37:05;26.30;79.10
3310;DHT22;1667;53.238;10.394;2022-08-04T01:42:05;26.20;79.50
3310;DHT22;1667;53.238;10.394;2022-08-04T01:47:08;26.10;79.40
3310;DHT22;1667;53.238;10.394;2022-08-04T01:52:08;26.10;79.70
3310;DHT22;1667;53.238;10.394;2022-08-04T01:57:09;26.00;80.40
3310;DHT22;1667;53.238;10.394;2022-08-04T02:02:29;26.00;79.60
3310;DHT22;1667;53.238;10.394;2022-08-04T02:07:38;25.90;79.90
3310;DHT22;1667;53.238;10.394;2022-08-04T02:12:51;25.80;80.40
3310;DHT22;1667;53.238;10.394;2022-08-04T02:17:59;25.80;79.90
3310;DHT22;1667;53.238;10.394;2022-08-04T02:23:00;25.70;80.30
3310;DHT22;1667;53.238;10.394;2022-08-04T02:28:11;25.60;80.40
3310;DHT22;1667;53.238;10.394;2022-08-04T02:33:12;25.60;80.40
3310;DHT22;1667;53.238;10.394;2022-08-04T02:38:20;25.50;80.90
3310;DHT22;1667;53.238;10.394;2022-08-04T02:43:24;25.40;81.40
3310;DHT22;1667;53.238;10.394;2022-08-04T02:48:45;25.40;80.90
3310;DHT22;1667;53.238;10.394;2022-08-04T02:53:45;25.30;81.00
3310;DHT22;1667;53.238;10.394;2022-08-04T02:58:45;25.30;81.10
3310;DHT22;1667;53.238;10.394;2022-08-04T03:03:52;25.20;81.10
3310;DHT22;1667;53.238;10.394;2022-08-04T03:09:15;25.20;80.80
3310;DHT22;1667;53.238;10.394;2022-08-04T03:20:15;25.20;80.00
3310;DHT22;1667;53.238;10.394;2022-08-04T03:25:48;25.10;80.10
3310;DHT22;1667;53.238;10.394;2022-08-04T03:31:17;25.10;80.10
3310;DHT22;1667;53.238;10.394;2022-08-04T03:42:12;25.00;80.80
3310;DHT22;1667;53.238;10.394;2022-08-04T03:47:36;24.90;81.40
3310;DHT22;1667;53.238;10.394;2022-08-04T03:58:42;24.80;80.40
3310;DHT22;1667;53.238;10.394;2022-08-04T04:04:07;24.70;81.10
3310;DHT22;1667;53.238;10.394;2022-08-04T04:09:38;24.70;81.00
3310;DHT22;1667;53.238;10.394;2022-08-04T04:15:02;24.70;81.40
3310;DHT22;1667;53.238;10.394;2022-08-04T04:25:46;24.60;82.20
3310;DHT22;1667;53.238;10.394;2022-08-04T04:30:53;24.60;83.20
3310;DHT22;1667;53.238;10.394;2022-08-04T04:36:06;24.60;83.50
3310;DHT22;1667;53.238;10.394;2022-08-04T04:41:22;24.50;84.20
3310;DHT22;1667;53.238;10.394;2022-08-04T04:46:34;24.50;84.10
3310;DHT22;1667;53.238;10.394;2022-08-04T04:51:41;24.50;85.50
3310;DHT22;1667;53.238;10.394;2022-08-04T04:56:46;24.50;85.60
3310;DHT22;1667;53.238;10.394;2022-08-04T05:07:49;24.60;85.70
3310;DHT22;1667;53.238;10.394;2022-08-04T05:13:05;24.60;84.70
3310;DHT22;1667;53.238;10.394;2022-08-04T05:18:36;24.70;86.00
3310;DHT22;1667;53.238;10.394;2022-08-04T05:23:36;24.80;86.90
3310;DHT22;1667;53.238;10.394;2022-08-04T05:28:49;24.90;86.90
3310;DHT22;1667;53.238;10.394;2022-08-04T05:33:53;25.00;88.60
3310;DHT22;1667;53.238;10.394;2022-08-04T05:38:53;25.20;87.80
3310;DHT22;1667;53.238;10.394;2022-08-04T05:43:57;25.20;87.90
3310;DHT22;1667;53.238;10.394;2022-08-04T05:48:57;25.40;87.90
3310;DHT22;1667;53.238;10.394;2022-08-04T05:53:57;25.50;87.70
3310;DHT22;1667;53.238;10.394;2022-08-04T05:58:57;25.60;86.90
3310;DHT22;1667;53.238;10.394;2022-08-04T06:03:58;25.70;87.10
3310;DHT22;1667;53.238;10.394;2022-08-04T06:08:57;25.90;88.10
3310;DHT22;1667;53.238;10.394;2022-08-04T06:13:59;26.10;87.40
3310;DHT22;1667;53.238;10.394;2022-08-04T06:19:03;26.30;88.30
3310;DHT22;1667;53.238;10.394;2022-08-04T06:24:23;26.40;88.00
3310;DHT22;1667;53.238;10.394;2022-08-04T06:29:25;26.60;86.80
3310;DHT22;1667;53.238;10.394;2022-08-04T06:34:26;26.80;87.10
3310;DHT22;1667;53.238;10.394;2022-08-04T06:39:27;26.90;86.60
3310;DHT22;1667;53.238;10.394;2022-08-04T06:44:29;27.10;86.70
3310;DHT22;1667;53.238;10.394;2022-08-04T06:49:28;27.40;87.00
3310;DHT22;1667;53.238;10.394;2022-08-04T06:54:50;27.50;86.60
3310;DHT22;1667;53.238;10.394;2022-08-04T06:59:51;27.70;85.80
3310;DHT22;1667;53.238;10.394;2022-08-04T07:04:50;28.00;86.20
3310;DHT22;1667;53.238;10.394;2022-08-04T07:09:50;28.20;84.90
3310;DHT22;1667;53.238;10.394;2022-08-04T07:14:50;28.40;84.80
3310;DHT22;1667;53.238;10.394;2022-08-04T07:19:49;28.80;84.80
3310;DHT22;1667;53.238;10.394;2022-08-04T07:24:54;29.10;83.70
3310;DHT22;1667;53.238;10.394;2022-08-04T07:29:54;29.30;83.20
3310;DHT22;1667;53.238;10.394;2022-08-04T07:34:53;29.60;82.70
3310;DHT22;1667;53.238;10.394;2022-08-04T07:39:52;29.90;80.90
3310;DHT22;1667;53.238;10.394;2022-08-04T07:44:50;30.00;80.20
3310;DHT22;1667;53.238;10.394;2022-08-04T07:49:50;30.10;79.60
3310;DHT22;1667;53.238;10.394;2022-08-04T07:54:53;30.40;79.20
3310;DHT22;1667;53.238;10.394;2022-08-04T07:59:52;30.70;79.40
3310;DHT22;1667;53.238;10.394;2022-08-04T08:04:52;31.00;77.30
3310;DHT22;1667;53.238;10.394;2022-08-04T08:16:39;31.40;76.60
3310;DHT22;1667;53.238;10.394;2022-08-04T08:21:39;31.30;76.60
3310;DHT22;1667;53.238;10.394;2022-08-04T08:26:56;31.40;74.70
3310;DHT22;1667;53.238;10.394;2022-08-04T08:31:55;31.60;74.30
3310;DHT22;1667;53.238;10.394;2022-08-04T08:37:08;31.80;72.20
3310;DHT22;1667;53.238;10.394;2022-08-04T09:01:02;32.90;72.60
3310;DHT22;1667;53.238;10.394;2022-08-04T09:06:30;33.00;68.60
3310;DHT22;1667;53.238;10.394;2022-08-04T09:11:40;33.10;68.20
3310;DHT22;1667;53.238;10.394;2022-08-04T09:16:46;33.30;66.70
3310;DHT22;1667;53.238;10.394;2022-08-04T09:21:52;33.50;65.90
3310;DHT22;1667;53.238;10.394;2022-08-04T09:26:56;33.60;65.50
3310;DHT22;1667;53.238;10.394;2022-08-04T09:32:03;33.60;63.90
3310;DHT22;1667;53.238;10.394;2022-08-04T09:37:08;33.70;64.00
3310;DHT22;1667;53.238;10.394;2022-08-04T09:42:19;33.80;63.30
3310;DHT22;1667;53.238;10.394;2022-08-04T09:47:30;34.00;63.10
3310;DHT22;1667;53.238;10.394;2022-08-04T09:52:43;34.20;65.00
3310;DHT22;1667;53.238;10.394;2022-08-04T09:57:54;34.40;64.30
3310;DHT22;1667;53.238;10.394;2022-08-04T10:02:57;34.50;64.40
3310;DHT22;1667;53.238;10.394;2022-08-04T10:08:17;34.60;62.60
3310;DHT22;1667;53.238;10.394;2022-08-04T10:13:28;34.70;62.80
3310;DHT22;1667;53.238;10.394;2022-08-04T10:18:43;34.90;61.30
3310;DHT22;1667;53.238;10.394;2022-08-04T10:23:51;35.10;61.30
3310;DHT22;1667;53.238;10.394;2022-08-04T10:29:01;35.30;61.20
3310;DHT22;1667;53.238;10.394;2022-08-04T10:34:06;35.60;59.60
3310;DHT22;1667;53.238;10.394;2022-08-04T10:39:13;35.80;59.80
3310;DHT22;1667;53.238;10.394;2022-08-04T10:44:41;35.90;58.40
3310;DHT22;1667;53.238;10.394;2022-08-04T10:49:59;36.00;59.00
3310;DHT22;1667;53.238;10.394;2022-08-04T10:55:04;36.10;59.00
3310;DHT22;1667;53.238;10.394;2022-08-04T11:00:05;36.20;57.50
3310;DHT22;1667;53.238;10.394;2022-08-04T11:05:14;36.40;56.70
3310;DHT22;1667;53.238;10.394;2022-08-04T11:10:18;36.60;57.80
3310;DHT22;1667;53.238;10.394;2022-08-04T11:15:22;36.70;57.90
3310;DHT22;1667;53.238;10.394;2022-08-04T11:20:27;36.70;55.60
3310;DHT22;1667;53.238;10.394;2022-08-04T11:25:39;36.70;55.50
3310;DHT22;1667;53.238;10.394;2022-08-04T11:30:44;36.70;55.40
3310;DHT22;1667;53.238;10.394;2022-08-04T11:35:50;36.80;55.20
3310;DHT22;1667;53.238;10.394;2022-08-04T11:40:53;36.70;55.30
3310;DHT22;1667;53.238;10.394;2022-08-04T11:46:02;36.80;54.80
3310;DHT22;1667;53.238;10.394;2022-08-04T11:51:06;36.90;54.60
3310;DHT22;1667;53.238;10.394;2022-08-04T11:56:09;37.00;54.20
3310;DHT22;1667;53.238;10.394;2022-08-04T12:01:58;37.20;54.10
3310;DHT22;1667;53.238;10.394;2022-08-04T12:07:05;37.20;54.10
3310;DHT22;1667;53.238;10.394;2022-08-04T12:12:30;37.20;53.90
3310;DHT22;1667;53.238;10.394;2022-08-04T12:17:34;37.40;53.50
3310;DHT22;1667;53.238;10.394;2022-08-04T12:22:52;37.50;52.20
3310;DHT22;1667;53.238;10.394;2022-08-04T12:27:57;37.50;51.40
3310;DHT22;1667;53.238;10.394;2022-08-04T12:33:00;37.60;51.00
3310;DHT22;1667;53.238;10.394;2022-08-04T12:38:04;37.70;51.30
3310;DHT22;1667;53.238;10.394;2022-08-04T12:43:09;37.80;51.20
3310;DHT22;1667;53.238;10.394;2022-08-04T12:48:08;37.80;50.60
3310;DHT22;1667;53.238;10.394;2022-08-04T12:53:12;37.90;51.00
3310;DHT22;1667;53.238;10.394;2022-08-04T12:58:31;38.00;50.80
3310;DHT22;1667;53.238;10.394;2022-08-04T13:03:42;38.10;51.20
3310;DHT22;1667;53.238;10.394;2022-08-04T13:08:44;38.20;50.50
3310;DHT22;1667;53.238;10.394;2022-08-04T13:13:44;38.20;49.80
3310;DHT22;1667;53.238;10.394;2022-08-04T13:18:45;38.20;50.00
3310;DHT22;1667;53.238;10.394;2022-08-04T13:23:48;38.10;50.60
3310;DHT22;1667;53.238;10.394;2022-08-04T13:29:07;38.00;49.90
3310;DHT22;1667;53.238;10.394;2022-08-04T13:34:31;37.90;50.20
3310;DHT22;1667;53.238;10.394;2022-08-04T13:39:32;37.70;50.60
3310;DHT22;1667;53.238;10.394;2022-08-04T13:44:35;37.60;50.60
3310;DHT22;1667;53.238;10.394;2022-08-04T13:49:33;37.40;50.50
3310;DHT22;1667;53.238;10.394;2022-08-04T13:54:53;37.40;50.50
3310;DHT22;1667;53.238;10.394;2022-08-04T13:59:54;37.40;50.00
3310;DHT22;1667;53.238;10.394;2022-08-04T14:04:54;37.40;49.90
3310;DHT22;1667;53.238;10.394;2022-08-04T14:09:55;37.60;50.60
3310;DHT22;1667;53.238;10.394;2022-08-04T14:14:59;37.70;50.30
3310;DHT22;1667;53.238;10.394;2022-08-04T14:19:59;37.80;50.40
3310;DHT22;1667;53.238;10.394;2022-08-04T14:25:02;37.90;49.30
3310;DHT22;1667;53.238;10.394;2022-08-04T14:30:01;38.00;49.40
3310;DHT22;1667;53.238;10.394;2022-08-04T14:35:09;38.00;49.10
3310;DHT22;1667;53.238;10.394;2022-08-04T14:40:22;38.00;50.20
3310;DHT22;1667;53.238;10.394;2022-08-04T14:45:32;38.00;50.30
3310;DHT22;1667;53.238;10.394;2022-08-04T14:50:36;38.10;50.40
3310;DHT22;1667;53.238;10.394;2022-08-04T14:55:38;38.20;49.60
3310;DHT22;1667;53.238;10.394;2022-08-04T15:07:32;38.30;49.40
3310;DHT22;1667;53.238;10.394;2022-08-04T15:12:31;38.20;49.50
3310;DHT22;1667;53.238;10.394;2022-08-04T15:17:30;38.10;48.60
3310;DHT22;1667;53.238;10.394;2022-08-04T15:22:28;38.10;48.80
3310;DHT22;1667;53.238;10.394;2022-08-04T15:27:33;37.90;48.50
3310;DHT22;1667;53.238;10.394;2022-08-04T15:32:33;37.80;48.90
3310;DHT22;1667;53.238;10.394;2022-08-04T15:37:38;37.70;48.50
3310;DHT22;1667;53.238;10.394;2022-08-04T15:42:45;37.50;48.80
3310;DHT22;1667;53.238;10.394;2022-08-04T15:53:12;37.00;49.50
3310;DHT22;1667;53.238;10.394;2022-08-04T15:58:21;36.80;49.20
3310;DHT22;1667;53.238;10.394;2022-08-04T16:03:41;36.50;52.90
3310;DHT22;1667;53.238;10.394;2022-08-04T16:08:58;36.20;55.30
3310;DHT22;1667;53.238;10.394;2022-08-04T16:14:10;35.50;56.60
3310;DHT22;1667;53.238;10.394;2022-08-04T16:19:10;34.70;57.70
3310;DHT22;1667;53.238;10.394;2022-08-04T16:24:19;34.20;57.60
3310;DHT22;1667;53.238;10.394;2022-08-04T16:29:33;33.60;58.00
3310;DHT22;1667;53.238;10.394;2022-08-04T16:34:32;33.30;58.00
3310;DHT22;1667;53.238;10.394;2022-08-04T16:39:46;33.00;58.00
3310;DHT22;1667;53.238;10.394;2022-08-04T16:44:58;32.80;58.20
3310;DHT22;1667;53.238;10.394;2022-08-04T16:50:01;32.60;58.40
3310;DHT22;1667;53.238;10.394;2022-08-04T16:54:59;32.50;58.40
3310;DHT22;1667;53.238;10.394;2022-08-04T16:59:59;32.50;58.30
3310;DHT22;1667;53.238;10.394;2022-08-04T17:04:58;32.50;58.60
3310;DHT22;1667;53.238;10.394;2022-08-04T17:10:04;32.40;58.40
3310;DHT22;1667;53.238;10.394;2022-08-04T17:15:19;32.40;58.40
3310;DHT22;1667;53.238;10.394;2022-08-04T17:20:25;32.30;58.60
3310;DHT22;1667;53.238;10.394;2022-08-04T17:25:50;32.20;59.20
3310;DHT22;1667;53.238;10.394;2022-08-04T17:30:53;32.00;59.80
3310;DHT22;1667;53.238;10.394;2022-08-04T17:35:54;31.80;61.70
3310;DHT22;1667;53.238;10.394;2022-08-04T17:40:56;31.60;62.70
3310;DHT22;1667;53.238;10.394;2022-08-04T17:46:25;31.50;63.20
3310;DHT22;1667;53.238;10.394;2022-08-04T17:51:40;31.40;64.40
3310;DHT22;1667;53.238;10.394;2022-08-04T17:56:59;31.10;65.00
3310;DHT22;1667;53.238;10.394;2022-08-04T18:08:24;30.80;66.00
3310;DHT22;1667;53.238;10.394;2022-08-04T18:13:39;30.80;67.30
3310;DHT22;1667;53.238;10.394;2022-08-04T18:18:39;30.60;67.80
3310;DHT22;1667;53.238;10.394;2022-08-04T18:23:46;30.40;67.60
3310;DHT22;1667;53.238;10.394;2022-08-04T18:28:47;30.20;68.00
3310;DHT22;1667;53.238;10.394;2022-08-04T18:33:45;30.30;67.70
3310;DHT22;1667;53.238;10.394;2022-08-04T18:38:56;30.40;67.30
3310;DHT22;1667;53.238;10.394;2022-08-04T18:44:11;30.30;67.60
3310;DHT22;1667;53.238;10.394;2022-08-04T18:49:12;30.20;67.90
3310;DHT22;1667;53.238;10.394;2022-08-04T18:54:33;30.20;67.80
3310;DHT22;1667;53.238;10.394;2022-08-04T18:59:31;30.20;68.30
3310;DHT22;1667;53.238;10.394;2022-08-04T19:04:30;30.10;68.20
3310;DHT22;1667;53.238;10.394;2022-08-04T19:09:34;30.00;68.30
3310;DHT22;1667;53.238;10.394;2022-08-04T19:14:48;30.00;68.50
3310;DHT22;1667;53.238;10.394;2022-08-04T19:19:54;29.90;68.60
3310;DHT22;1667;53.238;10.394;2022-08-04T19:24:54;29.80;68.60
3310;DHT22;1667;53.238;10.394;2022-08-04T19:29:53;29.70;69.10
3310;DHT22;1667;53.238;10.394;2022-08-04T19:34:51;29.60;69.50
3310;DHT22;1667;53.238;10.394;2022-08-04T19:39:49;29.60;69.40
3310;DHT22;1667;53.238;10.394;2022-08-04T19:44:51;29.50;70.00
3310;DHT22;1667;53.238;10.394;2022-08-04T19:49:49;29.40;70.40
3310;DHT22;1667;53.238;10.394;2022-08-04T19:55:02;29.40;70.20
3310;DHT22;1667;53.238;10.394;2022-08-04T20:00:12;29.30;70.60
3310;DHT22;1667;53.238;10.394;2022-08-04T20:05:12;29.20;70.40
3310;DHT22;1667;53.238;10.394;2022-08-04T20:10:12;29.10;71.40
3310;DHT22;1667;53.238;10.394;2022-08-04T20:15:12;29.00;71.60
3310;DHT22;1667;53.238;10.394;2022-08-04T20:20:11;29.00;72.10
3310;DHT22;1667;53.238;10.394;2022-08-04T20:25:10;28.90;72.30
3310;DHT22;1667;53.238;10.394;2022-08-04T20:30:30;28.80;72.60
3310;DHT22;1667;53.238;10.394;2022-08-04T20:35:30;28.70;72.30
3310;DHT22;1667;53.238;10.394;2022-08-04T20:40:49;28.60;74.30
3310;DHT22;1667;53.238;10.394;2022-08-04T20:45:48;28.60;75.00
3310;DHT22;1667;53.238;10.394;2022-08-04T20:50:55;28.40;74.70
3310;DHT22;1667;53.238;10.394;2022-08-04T20:55:53;28.40;75.50
3310;DHT22;1667;53.238;10.394;2022-08-04T21:00:53;28.30;75.80
3310;DHT22;1667;53.238;10.394;2022-08-04T21:05:53;28.20;75.90
3310;DHT22;1667;53.238;10.394;2022-08-04T21:10:52;28.10;76.00
3310;DHT22;1667;53.238;10.394;2022-08-04T21:15:50;28.00;76.10
3310;DHT22;1667;53.238;10.394;2022-08-04T21:20:56;28.00;76.20
3310;DHT22;1667;53.238;10.394;2022-08-04T21:25:59;27.90;76.70
3310;DHT22;1667;53.238;10.394;2022-08-04T21:30:58;27.80;76.80
3310;DHT22;1667;53.238;10.394;2022-08-04T21:36:09;27.60;77.50
3310;DHT22;1667;53.238;10.394;2022-08-04T21:41:08;27.60;77.10
3310;DHT22;1667;53.238;10.394;2022-08-04T21:46:09;27.50;77.20
3310;DHT22;1667;53.238;10.394;2022-08-04T21:51:16;27.40;77.90
3310;DHT22;1667;53.238;10.394;2022-08-04T21:56:35;27.30;78.20
3310;DHT22;1667;53.238;10.394;2022-08-04T22:01:34;27.30;78.00
3310;DHT22;1667;53.238;10.394;2022-08-04T22:06:49;27.30;77.90
3310;DHT22;1667;53.238;10.394;2022-08-04T22:11:49;27.20;78.00
3310;DHT22;1667;53.238;10.394;2022-08-04T22:16:48;27.10;78.00
3310;DHT22;1667;53.238;10.394;2022-08-04T22:21:51;27.00;78.30
3310;DHT22;1667;53.238;10.394;2022-08-04T22:26:51;27.00;78.50
3310;DHT22;1667;53.238;10.394;2022-08-04T22:31:49;26.90;79.10
3310;DHT22;1667;53.238;10.394;2022-08-04T22:36:54;26.90;79.40
3310;DHT22;1667;53.238;10.394;2022-08-04T22:41:52;26.80;79.30
3310;DHT22;1667;53.238;10.394;2022-08-04T22:47:00;26.70;79.20
3310;DHT22;1667;53.238;10.394;2022-08-04T22:52:01;26.70;79.20
3310;DHT22;1667;53.238;10.394;2022-08-04T22:57:14;26.70;80.20
3310;DHT22;1667;53.238;10.394;2022-08-04T23:02:12;26.60;79.90
3310;DHT22;1667;53.238;10.394;2022-08-04T23:07:12;26.50;80.80
3310;DHT22;1667;53.238;10.394;2022-08-04T23:12:11;26.40;80.60
3310;DHT22;1667;53.238;10.394;2022-08-04T23:17:26;26.30;81.00
3310;DHT22;1667;53.238;10.394;2022-08-04T23:22:41;26.30;81.00
3310;DHT22;1667;53.238;10.394;2022-08-04T23:27:45;26.20;81.80
3310;DHT22;1667;53.238;10.394;2022-08-04T23:32:47;26.20;81.50
3310;DHT22;1667;53.238;10.394;2022-08-04T23:37:48;26.10;81.50
3310;DHT22;1667;53.238;10.394;2022-08-04T23:42:53;26.00;82.30
3310;DHT22;1667;53.238;10.394;2022-08-04T23:47:51;26.00;82.60
3310;DHT22;1667;53.238;10.394;2022-08-04T23:53:11;25.90;82.70
3310;DHT22;1667;53.238;10.394;2022-08-04T23:58:18;25.80;82.90
